sensor_id;sensor_type;location;lat;lon;timestamp;P1;durP1;ratioP1;P2;durP2;ratioP2
59374;SDS011;45172;55.006;73.460;2023-12-04T00:01:57;6.55;;;3.17;;
59374;SDS011;45172;55.006;73.460;2023-12-04T00:04:24;6.68;;;2.90;;
59374;SDS011;45172;55.006;73.460;2023-12-04T00:06:50;7.65;;;3.50;;
59374;SDS011;45172;55.006;73.460;2023-12-04T00:09:18;4.05;;;1.83;;
59374;SDS011;45172;55.006;73.460;2023-12-04T00:11:45;4.82;;;2.28;;
59374;SDS011;45172;55.006;73.460;2023-12-04T00:14:12;4.38;;;1.95;;
59374;SDS011;45172;55.006;73.460;2023-12-04T00:16:38;10.68;;;4.25;;
59374;SDS011;45172;55.006;73.460;2023-12-04T00:19:04;22.98;;;7.13;;
59374;SDS011;45172;55.006;73.460;2023-12-04T00:21:31;5.05;;;2.58;;
59374;SDS011;45172;55.006;73.460;2023-12-04T00:23:57;7.30;;;3.10;;
59374;SDS011;45172;55.006;73.460;2023-12-04T00:26:23;36.45;;;11.80;;
59374;SDS011;45172;55.006;73.460;2023-12-04T00:28:49;24.25;;;6.18;;
59374;SDS011;45172;55.006;73.460;2023-12-04T00:31:16;6.70;;;3.03;;
59374;SDS011;45172;55.006;73.460;2023-12-04T00:33:42;38.13;;;11.23;;
59374;SDS011;45172;55.006;73.460;2023-12-04T00:36:09;28.95;;;8.25;;
59374;SDS011;45172;55.006;73.460;2023-12-04T00:38:35;53.28;;;13.77;;
59374;SDS011;45172;55.006;73.460;2023-12-04T00:41:01;9.65;;;4.22;;
59374;SDS011;45172;55.006;73.460;2023-12-04T00:43:28;23.77;;;6.07;;
59374;SDS011;45172;55.006;73.460;2023-12-04T00:45:55;46.30;;;14.05;;
59374;SDS011;45172;55.006;73.460;2023-12-04T00:48:22;21.50;;;9.68;;
59374;SDS011;45172;55.006;73.460;2023-12-04T00:50:48;17.52;;;5.40;;
59374;SDS011;45172;55.006;73.460;2023-12-04T00:53:14;20.85;;;8.02;;
59374;SDS011;45172;55.006;73.460;2023-12-04T00:55:40;8.23;;;3.95;;
59374;SDS011;45172;55.006;73.460;2023-12-04T00:58:07;6.35;;;2.08;;
59374;SDS011;45172;55.006;73.460;2023-12-04T01:00:33;9.70;;;3.03;;
59374;SDS011;45172;55.006;73.460;2023-12-04T01:02:59;9.82;;;4.30;;
59374;SDS011;45172;55.006;73.460;2023-12-04T01:05:25;1.60;;;1.38;;
59374;SDS011;45172;55.006;73.460;2023-12-04T01:07:52;6.97;;;3.53;;
59374;SDS011;45172;55.006;73.460;2023-12-04T01:10:18;3.38;;;2.35;;
59374;SDS011;45172;55.006;73.460;2023-12-04T01:12:44;6.38;;;2.67;;
59374;SDS011;45172;55.006;73.460;2023-12-04T01:15:10;10.77;;;2.72;;
59374;SDS011;45172;55.006;73.460;2023-12-04T01:17:37;3.33;;;2.08;;
59374;SDS011;45172;55.006;73.460;2023-12-04T01:20:03;8.95;;;2.03;;
59374;SDS011;45172;55.006;73.460;2023-12-04T01:22:30;9.30;;;2.15;;
59374;SDS011;45172;55.006;73.460;2023-12-04T01:24:57;3.10;;;1.27;;
59374;SDS011;45172;55.006;73.460;2023-12-04T01:27:23;4.53;;;1.73;;
59374;SDS011;45172;55.006;73.460;2023-12-04T01:29:49;9.43;;;2.95;;
59374;SDS011;45172;55.006;73.460;2023-12-04T01:32:15;2.15;;;1.48;;
59374;SDS011;45172;55.006;73.460;2023-12-04T01:34:41;1.77;;;1.10;;
59374;SDS011;45172;55.006;73.460;2023-12-04T01:37:08;4.63;;;2.30;;
59374;SDS011;45172;55.006;73.460;2023-12-04T01:39:34;5.70;;;1.63;;
59374;SDS011;45172;55.006;73.460;2023-12-04T01:42:00;1.95;;;1.48;;
59374;SDS011;45172;55.006;73.460;2023-12-04T01:44:26;3.35;;;1.40;;
59374;SDS011;45172;55.006;73.460;2023-12-04T01:46:53;2.75;;;1.67;;
59374;SDS011;45172;55.006;73.460;2023-12-04T01:49:19;3.47;;;1.98;;
59374;SDS011;45172;55.006;73.460;2023-12-04T01:51:45;4.28;;;2.85;;
59374;SDS011;45172;55.006;73.460;2023-12-04T01:54:12;1.23;;;1.13;;
59374;SDS011;45172;55.006;73.460;2023-12-04T01:56:39;1.88;;;1.58;;
59374;SDS011;45172;55.006;73.460;2023-12-04T01:59:05;7.15;;;2.13;;
59374;SDS011;45172;55.006;73.460;2023-12-04T02:01:31;3.55;;;1.02;;
59374;SDS011;45172;55.006;73.460;2023-12-04T02:03:58;6.53;;;4.65;;
59374;SDS011;45172;55.006;73.460;2023-12-04T02:06:27;9.00;;;2.22;;
59374;SDS011;45172;55.006;73.460;2023-12-04T02:08:53;2.85;;;2.05;;
59374;SDS011;45172;55.006;73.460;2023-12-04T02:11:19;6.07;;;2.28;;
59374;SDS011;45172;55.006;73.460;2023-12-04T02:13:45;3.70;;;1.80;;
59374;SDS011;45172;55.006;73.460;2023-12-04T02:16:12;2.55;;;1.50;;
59374;SDS011;45172;55.006;73.460;2023-12-04T02:18:40;1.42;;;1.33;;
59374;SDS011;45172;55.006;73.460;2023-12-04T02:21:07;2.03;;;1.42;;
59374;SDS011;45172;55.006;73.460;2023-12-04T02:23:34;2.03;;;1.30;;
59374;SDS011;45172;55.006;73.460;2023-12-04T02:26:05;1.92;;;1.42;;
59374;SDS011;45172;55.006;73.460;2023-12-04T02:28:36;4.85;;;1.55;;
59374;SDS011;45172;55.006;73.460;2023-12-04T02:31:04;1.35;;;1.25;;
59374;SDS011;45172;55.006;73.460;2023-12-04T02:33:32;5.07;;;3.10;;
59374;SDS011;45172;55.006;73.460;2023-12-04T02:36:00;3.38;;;1.38;;
59374;SDS011;45172;55.006;73.460;2023-12-04T02:38:28;2.25;;;1.95;;
59374;SDS011;45172;55.006;73.460;2023-12-04T02:45:01;4.03;;;2.15;;
59374;SDS011;45172;55.006;73.460;2023-12-04T02:51:33;6.13;;;2.53;;
59374;SDS011;45172;55.006;73.460;2023-12-04T02:58:11;1.50;;;1.10;;
59374;SDS011;45172;55.006;73.460;2023-12-04T03:00:37;9.73;;;2.38;;
59374;SDS011;45172;55.006;73.460;2023-12-04T03:03:03;3.20;;;1.73;;
59374;SDS011;45172;55.006;73.460;2023-12-04T03:05:29;3.75;;;1.67;;
59374;SDS011;45172;55.006;73.460;2023-12-04T03:07:55;6.28;;;2.00;;
59374;SDS011;45172;55.006;73.460;2023-12-04T03:10:21;1.92;;;1.40;;
59374;SDS011;45172;55.006;73.460;2023-12-04T03:12:47;6.88;;;2.00;;
59374;SDS011;45172;55.006;73.460;2023-12-04T03:15:14;2.92;;;2.08;;
59374;SDS011;45172;55.006;73.460;2023-12-04T03:17:40;7.78;;;2.15;;
59374;SDS011;45172;55.006;73.460;2023-12-04T03:20:06;7.72;;;2.58;;
59374;SDS011;45172;55.006;73.460;2023-12-04T03:22:34;3.03;;;2.17;;
59374;SDS011;45172;55.006;73.460;2023-12-04T03:25:02;7.43;;;2.55;;
59374;SDS011;45172;55.006;73.460;2023-12-04T03:27:29;1.58;;;1.48;;
59374;SDS011;45172;55.006;73.460;2023-12-04T03:29:55;12.73;;;4.65;;
59374;SDS011;45172;55.006;73.460;2023-12-04T03:32:21;24.92;;;4.85;;
59374;SDS011;45172;55.006;73.460;2023-12-04T03:34:47;2.78;;;2.05;;
59374;SDS011;45172;55.006;73.460;2023-12-04T03:37:13;2.85;;;2.28;;
59374;SDS011;45172;55.006;73.460;2023-12-04T03:39:40;38.10;;;11.43;;
59374;SDS011;45172;55.006;73.460;2023-12-04T03:42:06;103.53;;;33.03;;
59374;SDS011;45172;55.006;73.460;2023-12-04T03:44:32;6.32;;;2.92;;
59374;SDS011;45172;55.006;73.460;2023-12-04T03:46:58;3.97;;;1.77;;
59374;SDS011;45172;55.006;73.460;2023-12-04T03:49:25;9.88;;;4.25;;
59374;SDS011;45172;55.006;73.460;2023-12-04T03:51:51;1.80;;;1.42;;
59374;SDS011;45172;55.006;73.460;2023-12-04T03:54:17;10.35;;;4.68;;
59374;SDS011;45172;55.006;73.460;2023-12-04T03:56:43;9.05;;;2.47;;
59374;SDS011;45172;55.006;73.460;2023-12-04T03:59:10;4.95;;;2.45;;
59374;SDS011;45172;55.006;73.460;2023-12-04T04:01:36;13.18;;;4.35;;
59374;SDS011;45172;55.006;73.460;2023-12-04T04:04:02;5.25;;;3.00;;
59374;SDS011;45172;55.006;73.460;2023-12-04T04:06:28;5.97;;;3.88;;
59374;SDS011;45172;55.006;73.460;2023-12-04T04:08:55;7.63;;;3.13;;
59374;SDS011;45172;55.006;73.460;2023-12-04T04:11:21;9.10;;;3.50;;
59374;SDS011;45172;55.006;73.460;2023-12-04T04:13:47;8.95;;;3.60;;
59374;SDS011;45172;55.006;73.460;2023-12-04T04:16:14;10.95;;;4.72;;
59374;SDS011;45172;55.006;73.460;2023-12-04T04:18:44;10.10;;;4.55;;
59374;SDS011;45172;55.006;73.460;2023-12-04T04:21:10;7.35;;;3.65;;
59374;SDS011;45172;55.006;73.460;2023-12-04T04:23:36;11.63;;;5.38;;
59374;SDS011;45172;55.006;73.460;2023-12-04T04:26:03;5.35;;;2.53;;
59374;SDS011;45172;55.006;73.460;2023-12-04T04:28:29;19.30;;;5.20;;
59374;SDS011;45172;55.006;73.460;2023-12-04T04:30:55;8.90;;;3.40;;
59374;SDS011;45172;55.006;73.460;2023-12-04T04:33:22;6.70;;;3.20;;
59374;SDS011;45172;55.006;73.460;2023-12-04T04:35:48;3.80;;;2.50;;
59374;SDS011;45172;55.006;73.460;2023-12-04T04:38:14;3.92;;;2.25;;
59374;SDS011;45172;55.006;73.460;2023-12-04T04:40:40;4.68;;;2.15;;
59374;SDS011;45172;55.006;73.460;2023-12-04T04:43:09;2.55;;;2.00;;
59374;SDS011;45172;55.006;73.460;2023-12-04T04:45:36;10.02;;;3.88;;
59374;SDS011;45172;55.006;73.460;2023-12-04T04:48:02;8.35;;;2.83;;
59374;SDS011;45172;55.006;73.460;2023-12-04T04:50:29;3.38;;;1.67;;
59374;SDS011;45172;55.006;73.460;2023-12-04T04:52:55;2.70;;;2.05;;
59374;SDS011;45172;55.006;73.460;2023-12-04T04:55:21;2.08;;;1.55;;
59374;SDS011;45172;55.006;73.460;2023-12-04T04:57:48;10.45;;;2.22;;
59374;SDS011;45172;55.006;73.460;2023-12-04T05:00:14;10.15;;;3.60;;
59374;SDS011;45172;55.006;73.460;2023-12-04T05:02:41;3.17;;;1.45;;
59374;SDS011;45172;55.006;73.460;2023-12-04T05:05:07;4.90;;;2.53;;
59374;SDS011;45172;55.006;73.460;2023-12-04T05:07:34;10.65;;;4.25;;
59374;SDS011;45172;55.006;73.460;2023-12-04T05:10:00;5.70;;;3.03;;
59374;SDS011;45172;55.006;73.460;2023-12-04T05:12:26;5.80;;;2.22;;
59374;SDS011;45172;55.006;73.460;2023-12-04T05:14:52;8.35;;;3.97;;
59374;SDS011;45172;55.006;73.460;2023-12-04T05:17:18;2.70;;;1.67;;
59374;SDS011;45172;55.006;73.460;2023-12-04T05:19:44;6.60;;;3.30;;
59374;SDS011;45172;55.006;73.460;2023-12-04T05:22:10;24.13;;;7.53;;
59374;SDS011;45172;55.006;73.460;2023-12-04T05:24:37;15.85;;;5.43;;
59374;SDS011;45172;55.006;73.460;2023-12-04T05:27:03;2.28;;;1.52;;
59374;SDS011;45172;55.006;73.460;2023-12-04T05:29:30;11.02;;;2.50;;
59374;SDS011;45172;55.006;73.460;2023-12-04T05:31:56;1.52;;;1.20;;
59374;SDS011;45172;55.006;73.460;2023-12-04T05:34:23;3.65;;;2.10;;
59374;SDS011;45172;55.006;73.460;2023-12-04T05:36:49;9.00;;;2.70;;
59374;SDS011;45172;55.006;73.460;2023-12-04T05:39:15;3.80;;;2.10;;
59374;SDS011;45172;55.006;73.460;2023-12-04T05:41:42;4.03;;;1.70;;
59374;SDS011;45172;55.006;73.460;2023-12-04T05:44:08;3.03;;;1.45;;
59374;SDS011;45172;55.006;73.460;2023-12-04T05:46:37;6.57;;;1.73;;
59374;SDS011;45172;55.006;73.460;2023-12-04T05:49:10;3.38;;;1.50;;
59374;SDS011;45172;55.006;73.460;2023-12-04T05:51:36;2.90;;;1.98;;
59374;SDS011;45172;55.006;73.460;2023-12-04T05:54:03;8.77;;;2.72;;
59374;SDS011;45172;55.006;73.460;2023-12-04T05:56:29;9.32;;;2.38;;
59374;SDS011;45172;55.006;73.460;2023-12-04T05:58:55;51.65;;;14.45;;
59374;SDS011;45172;55.006;73.460;2023-12-04T06:01:21;4.65;;;2.78;;
59374;SDS011;45172;55.006;73.460;2023-12-04T06:03:48;3.83;;;2.35;;
59374;SDS011;45172;55.006;73.460;2023-12-04T06:06:14;16.52;;;5.38;;
59374;SDS011;45172;55.006;73.460;2023-12-04T06:08:40;15.88;;;7.75;;
59374;SDS011;45172;55.006;73.460;2023-12-04T06:11:07;9.18;;;3.58;;
59374;SDS011;45172;55.006;73.460;2023-12-04T06:13:33;8.65;;;5.22;;
59374;SDS011;45172;55.006;73.460;2023-12-04T06:15:59;4.05;;;2.75;;
59374;SDS011;45172;55.006;73.460;2023-12-04T06:18:25;72.18;;;53.55;;
59374;SDS011;45172;55.006;73.460;2023-12-04T06:20:52;258.10;;;147.52;;
59374;SDS011;45172;55.006;73.460;2023-12-04T06:23:18;9.23;;;5.68;;
59374;SDS011;45172;55.006;73.460;2023-12-04T06:25:44;8.73;;;3.83;;
59374;SDS011;45172;55.006;73.460;2023-12-04T06:28:11;6.70;;;3.88;;
59374;SDS011;45172;55.006;73.460;2023-12-04T06:30:38;8.18;;;4.75;;
59374;SDS011;45172;55.006;73.460;2023-12-04T06:33:04;10.13;;;4.50;;
59374;SDS011;45172;55.006;73.460;2023-12-04T06:35:31;77.80;;;39.00;;
59374;SDS011;45172;55.006;73.460;2023-12-04T06:37:57;29.55;;;13.80;;
59374;SDS011;45172;55.006;73.460;2023-12-04T06:40:31;14.68;;;6.07;;
59374;SDS011;45172;55.006;73.460;2023-12-04T06:42:58;31.58;;;19.83;;
59374;SDS011;45172;55.006;73.460;2023-12-04T06:45:25;46.20;;;22.15;;
59374;SDS011;45172;55.006;73.460;2023-12-04T06:47:52;6.78;;;2.80;;
59374;SDS011;45172;55.006;73.460;2023-12-04T06:50:20;12.02;;;4.97;;
59374;SDS011;45172;55.006;73.460;2023-12-04T06:52:46;30.13;;;18.10;;
59374;SDS011;45172;55.006;73.460;2023-12-04T06:55:12;3.30;;;2.33;;
59374;SDS011;45172;55.006;73.460;2023-12-04T06:57:38;5.97;;;1.77;;
59374;SDS011;45172;55.006;73.460;2023-12-04T07:00:05;2.85;;;1.92;;
59374;SDS011;45172;55.006;73.460;2023-12-04T07:02:50;3.33;;;1.95;;
59374;SDS011;45172;55.006;73.460;2023-12-04T07:05:16;15.02;;;3.35;;
59374;SDS011;45172;55.006;73.460;2023-12-04T07:07:44;9.25;;;4.63;;
59374;SDS011;45172;55.006;73.460;2023-12-04T07:10:10;6.07;;;2.22;;
59374;SDS011;45172;55.006;73.460;2023-12-04T07:12:40;8.20;;;3.17;;
59374;SDS011;45172;55.006;73.460;2023-12-04T07:15:08;13.75;;;2.83;;
59374;SDS011;45172;55.006;73.460;2023-12-04T07:17:35;6.88;;;3.20;;
59374;SDS011;45172;55.006;73.460;2023-12-04T07:20:02;8.65;;;3.03;;
59374;SDS011;45172;55.006;73.460;2023-12-04T07:22:29;75.63;;;15.60;;
59374;SDS011;45172;55.006;73.460;2023-12-04T07:24:57;179.45;;;65.85;;
59374;SDS011;45172;55.006;73.460;2023-12-04T07:27:23;15.07;;;5.13;;
59374;SDS011;45172;55.006;73.460;2023-12-04T07:29:49;18.10;;;5.53;;
59374;SDS011;45172;55.006;73.460;2023-12-04T07:32:16;20.23;;;8.02;;
59374;SDS011;45172;55.006;73.460;2023-12-04T07:34:44;11.50;;;6.13;;
59374;SDS011;45172;55.006;73.460;2023-12-04T07:37:10;52.40;;;20.33;;
59374;SDS011;45172;55.006;73.460;2023-12-04T07:39:38;52.60;;;18.80;;
59374;SDS011;45172;55.006;73.460;2023-12-04T07:46:22;16.08;;;6.10;;
59374;SDS011;45172;55.006;73.460;2023-12-04T07:53:06;19.05;;;8.02;;
59374;SDS011;45172;55.006;73.460;2023-12-04T07:59:54;5.07;;;1.70;;
59374;SDS011;45172;55.006;73.460;2023-12-04T08:06:37;6.28;;;2.60;;
59374;SDS011;45172;55.006;73.460;2023-12-04T08:13:21;8.18;;;3.00;;
59374;SDS011;45172;55.006;73.460;2023-12-04T08:15:48;8.90;;;3.83;;
59374;SDS011;45172;55.006;73.460;2023-12-04T08:18:14;1.40;;;1.30;;
59374;SDS011;45172;55.006;73.460;2023-12-04T08:20:40;8.05;;;3.00;;
59374;SDS011;45172;55.006;73.460;2023-12-04T08:23:07;9.13;;;3.38;;
59374;SDS011;45172;55.006;73.460;2023-12-04T08:25:34;8.13;;;2.92;;
59374;SDS011;45172;55.006;73.460;2023-12-04T08:28:02;9.52;;;2.80;;
59374;SDS011;45172;55.006;73.460;2023-12-04T08:30:28;3.25;;;2.20;;
59374;SDS011;45172;55.006;73.460;2023-12-04T08:32:55;3.08;;;1.90;;
59374;SDS011;45172;55.006;73.460;2023-12-04T08:35:21;14.82;;;4.78;;
59374;SDS011;45172;55.006;73.460;2023-12-04T08:37:47;5.28;;;2.22;;
59374;SDS011;45172;55.006;73.460;2023-12-04T08:40:14;5.90;;;2.80;;
59374;SDS011;45172;55.006;73.460;2023-12-04T08:42:40;1.73;;;1.42;;
59374;SDS011;45172;55.006;73.460;2023-12-04T08:45:06;12.30;;;4.15;;
59374;SDS011;45172;55.006;73.460;2023-12-04T08:47:35;13.00;;;3.65;;
59374;SDS011;45172;55.006;73.460;2023-12-04T08:50:01;12.88;;;4.28;;
59374;SDS011;45172;55.006;73.460;2023-12-04T08:52:28;13.85;;;6.05;;
59374;SDS011;45172;55.006;73.460;2023-12-04T08:54:54;14.48;;;4.40;;
59374;SDS011;45172;55.006;73.460;2023-12-04T08:57:20;7.22;;;3.97;;
59374;SDS011;45172;55.006;73.460;2023-12-04T08:59:47;57.65;;;18.65;;
59374;SDS011;45172;55.006;73.460;2023-12-04T09:02:13;14.45;;;3.00;;
59374;SDS011;45172;55.006;73.460;2023-12-04T09:04:39;7.72;;;2.97;;
59374;SDS011;45172;55.006;73.460;2023-12-04T09:07:05;10.55;;;3.83;;
59374;SDS011;45172;55.006;73.460;2023-12-04T09:09:31;7.47;;;3.20;;
59374;SDS011;45172;55.006;73.460;2023-12-04T09:11:58;17.20;;;6.15;;
59374;SDS011;45172;55.006;73.460;2023-12-04T09:14:24;107.30;;;27.27;;
59374;SDS011;45172;55.006;73.460;2023-12-04T09:16:50;44.20;;;15.50;;
59374;SDS011;45172;55.006;73.460;2023-12-04T09:19:16;23.60;;;7.25;;
59374;SDS011;45172;55.006;73.460;2023-12-04T09:21:43;24.08;;;5.80;;
59374;SDS011;45172;55.006;73.460;2023-12-04T09:24:09;20.70;;;5.05;;
59374;SDS011;45172;55.006;73.460;2023-12-04T09:26:36;10.30;;;4.00;;
59374;SDS011;45172;55.006;73.460;2023-12-04T09:29:02;14.07;;;4.03;;
59374;SDS011;45172;55.006;73.460;2023-12-04T09:31:28;18.67;;;4.65;;
59374;SDS011;45172;55.006;73.460;2023-12-04T09:33:54;13.18;;;5.35;;
59374;SDS011;45172;55.006;73.460;2023-12-04T09:36:21;11.20;;;5.47;;
59374;SDS011;45172;55.006;73.460;2023-12-04T09:38:47;15.23;;;5.72;;
59374;SDS011;45172;55.006;73.460;2023-12-04T09:41:14;16.95;;;5.10;;
59374;SDS011;45172;55.006;73.460;2023-12-04T09:43:41;7.57;;;4.28;;
59374;SDS011;45172;55.006;73.460;2023-12-04T09:46:09;18.05;;;5.47;;
59374;SDS011;45172;55.006;73.460;2023-12-04T09:48:37;24.00;;;7.05;;
59374;SDS011;45172;55.006;73.460;2023-12-04T09:51:06;11.52;;;4.50;;
59374;SDS011;45172;55.006;73.460;2023-12-04T09:53:33;16.42;;;6.63;;
59374;SDS011;45172;55.006;73.460;2023-12-04T09:56:02;22.85;;;5.40;;
59374;SDS011;45172;55.006;73.460;2023-12-04T09:58:29;5.25;;;1.42;;
59374;SDS011;45172;55.006;73.460;2023-12-04T10:00:58;33.10;;;5.05;;
59374;SDS011;45172;55.006;73.460;2023-12-04T10:03:26;21.58;;;3.58;;
59374;SDS011;45172;55.006;73.460;2023-12-04T10:05:55;6.15;;;1.95;;
59374;SDS011;45172;55.006;73.460;2023-12-04T10:08:22;4.20;;;2.15;;
59374;SDS011;45172;55.006;73.460;2023-12-04T10:10:48;3.55;;;2.17;;
59374;SDS011;45172;55.006;73.460;2023-12-04T10:13:15;7.47;;;2.58;;
59374;SDS011;45172;55.006;73.460;2023-12-04T10:15:47;12.00;;;4.03;;
59374;SDS011;45172;55.006;73.460;2023-12-04T10:18:24;8.60;;;1.95;;
59374;SDS011;45172;55.006;73.460;2023-12-04T10:20:52;3.63;;;1.65;;
59374;SDS011;45172;55.006;73.460;2023-12-04T10:23:20;5.25;;;2.45;;
59374;SDS011;45172;55.006;73.460;2023-12-04T10:25:48;2.75;;;2.45;;
59374;SDS011;45172;55.006;73.460;2023-12-04T10:28:16;14.35;;;5.15;;
59374;SDS011;45172;55.006;73.460;2023-12-04T10:30:44;5.38;;;3.17;;
59374;SDS011;45172;55.006;73.460;2023-12-04T10:33:11;10.43;;;2.20;;
59374;SDS011;45172;55.006;73.460;2023-12-04T10:35:39;8.00;;;2.75;;
59374;SDS011;45172;55.006;73.460;2023-12-04T10:38:06;15.77;;;3.40;;
59374;SDS011;45172;55.006;73.460;2023-12-04T10:40:34;31.45;;;6.80;;
59374;SDS011;45172;55.006;73.460;2023-12-04T10:43:18;15.10;;;4.60;;
59374;SDS011;45172;55.006;73.460;2023-12-04T10:45:46;14.15;;;4.45;;
59374;SDS011;45172;55.006;73.460;2023-12-04T10:48:14;19.95;;;7.93;;
59374;SDS011;45172;55.006;73.460;2023-12-04T10:50:46;36.40;;;10.60;;
59374;SDS011;45172;55.006;73.460;2023-12-04T10:53:14;25.75;;;8.73;;
59374;SDS011;45172;55.006;73.460;2023-12-04T10:55:41;5.38;;;2.80;;
59374;SDS011;45172;55.006;73.460;2023-12-04T10:58:12;27.63;;;9.55;;
59374;SDS011;45172;55.006;73.460;2023-12-04T11:00:48;38.90;;;15.27;;
59374;SDS011;45172;55.006;73.460;2023-12-04T11:03:20;5.95;;;3.85;;
59374;SDS011;45172;55.006;73.460;2023-12-04T11:05:59;12.43;;;6.68;;
59374;SDS011;45172;55.006;73.460;2023-12-04T11:08:29;9.70;;;6.20;;
59374;SDS011;45172;55.006;73.460;2023-12-04T11:11:01;15.52;;;7.10;;
59374;SDS011;45172;55.006;73.460;2023-12-04T11:13:32;16.35;;;6.32;;
59374;SDS011;45172;55.006;73.460;2023-12-04T11:18:36;13.13;;;5.07;;
59374;SDS011;45172;55.006;73.460;2023-12-04T11:21:06;12.77;;;5.20;;
59374;SDS011;45172;55.006;73.460;2023-12-04T11:23:34;20.98;;;8.32;;
59374;SDS011;45172;55.006;73.460;2023-12-04T11:26:01;55.38;;;16.17;;
59374;SDS011;45172;55.006;73.460;2023-12-04T11:28:29;42.50;;;17.50;;
59374;SDS011;45172;55.006;73.460;2023-12-04T11:30:57;16.00;;;6.85;;
59374;SDS011;45172;55.006;73.460;2023-12-04T11:33:24;18.52;;;9.80;;
59374;SDS011;45172;55.006;73.460;2023-12-04T11:35:50;41.08;;;12.13;;
59374;SDS011;45172;55.006;73.460;2023-12-04T11:38:17;39.47;;;14.60;;
59374;SDS011;45172;55.006;73.460;2023-12-04T11:40:43;91.63;;;28.55;;
59374;SDS011;45172;55.006;73.460;2023-12-04T11:43:21;88.72;;;25.63;;
59374;SDS011;45172;55.006;73.460;2023-12-04T11:45:49;48.67;;;13.98;;
59374;SDS011;45172;55.006;73.460;2023-12-04T11:48:15;28.67;;;11.80;;
59374;SDS011;45172;55.006;73.460;2023-12-04T11:50:45;26.45;;;10.50;;
59374;SDS011;45172;55.006;73.460;2023-12-04T11:53:11;32.38;;;11.07;;
59374;SDS011;45172;55.006;73.460;2023-12-04T11:55:40;14.73;;;8.68;;
59374;SDS011;45172;55.006;73.460;2023-12-04T11:58:09;28.10;;;10.95;;
59374;SDS011;45172;55.006;73.460;2023-12-04T12:00:37;33.80;;;11.43;;
59374;SDS011;45172;55.006;73.460;2023-12-04T12:03:05;61.72;;;15.50;;
59374;SDS011;45172;55.006;73.460;2023-12-04T12:05:34;31.08;;;7.82;;
59374;SDS011;45172;55.006;73.460;2023-12-04T12:08:05;27.95;;;8.63;;
59374;SDS011;45172;55.006;73.460;2023-12-04T12:10:32;50.65;;;15.15;;
59374;SDS011;45172;55.006;73.460;2023-12-04T12:12:59;42.05;;;12.07;;
59374;SDS011;45172;55.006;73.460;2023-12-04T12:15:27;56.50;;;13.93;;
59374;SDS011;45172;55.006;73.460;2023-12-04T12:17:53;28.60;;;10.27;;
59374;SDS011;45172;55.006;73.460;2023-12-04T12:20:20;80.65;;;21.88;;
59374;SDS011;45172;55.006;73.460;2023-12-04T12:22:55;52.60;;;13.20;;
59374;SDS011;45172;55.006;73.460;2023-12-04T12:25:21;48.38;;;15.23;;
59374;SDS011;45172;55.006;73.460;2023-12-04T12:27:48;47.75;;;13.77;;
59374;SDS011;45172;55.006;73.460;2023-12-04T12:32:58;37.88;;;12.45;;
59374;SDS011;45172;55.006;73.460;2023-12-04T12:35:24;40.88;;;13.40;;
59374;SDS011;45172;55.006;73.460;2023-12-04T12:38:09;52.80;;;20.13;;
59374;SDS011;45172;55.006;73.460;2023-12-04T12:40:49;44.88;;;14.18;;
59374;SDS011;45172;55.006;73.460;2023-12-04T12:43:37;41.65;;;13.27;;
59374;SDS011;45172;55.006;73.460;2023-12-04T12:46:17;64.47;;;17.42;;
59374;SDS011;45172;55.006;73.460;2023-12-04T12:48:44;70.20;;;17.98;;
59374;SDS011;45172;55.006;73.460;2023-12-04T12:51:11;43.28;;;15.65;;
59374;SDS011;45172;55.006;73.460;2023-12-04T12:53:38;66.32;;;15.00;;
59374;SDS011;45172;55.006;73.460;2023-12-04T12:56:05;66.13;;;17.33;;
59374;SDS011;45172;55.006;73.460;2023-12-04T12:58:31;97.28;;;25.73;;
59374;SDS011;45172;55.006;73.460;2023-12-04T13:00:59;80.65;;;23.77;;
59374;SDS011;45172;55.006;73.460;2023-12-04T13:03:27;120.88;;;31.25;;
59374;SDS011;45172;55.006;73.460;2023-12-04T13:05:57;235.25;;;69.68;;
59374;SDS011;45172;55.006;73.460;2023-12-04T13:08:31;133.60;;;40.30;;
59374;SDS011;45172;55.006;73.460;2023-12-04T13:10:57;336.65;;;98.90;;
59374;SDS011;45172;55.006;73.460;2023-12-04T13:13:24;272.33;;;76.93;;
59374;SDS011;45172;55.006;73.460;2023-12-04T13:15:52;102.47;;;30.40;;
59374;SDS011;45172;55.006;73.460;2023-12-04T13:18:20;75.82;;;19.27;;
59374;SDS011;45172;55.006;73.460;2023-12-04T13:20:46;67.38;;;20.27;;
59374;SDS011;45172;55.006;73.460;2023-12-04T13:23:11;82.93;;;24.48;;
59374;SDS011;45172;55.006;73.460;2023-12-04T13:25:38;97.28;;;27.08;;
59374;SDS011;45172;55.006;73.460;2023-12-04T13:28:16;90.00;;;27.67;;
59374;SDS011;45172;55.006;73.460;2023-12-04T13:30:58;115.55;;;31.90;;
59374;SDS011;45172;55.006;73.460;2023-12-04T13:33:24;118.38;;;31.58;;
59374;SDS011;45172;55.006;73.460;2023-12-04T13:35:51;123.95;;;33.08;;
59374;SDS011;45172;55.006;73.460;2023-12-04T13:38:17;120.00;;;28.63;;
59374;SDS011;45172;55.006;73.460;2023-12-04T13:40:44;86.13;;;29.00;;
59374;SDS011;45172;55.006;73.460;2023-12-04T13:43:27;85.40;;;23.88;;
59374;SDS011;45172;55.006;73.460;2023-12-04T13:46:12;72.25;;;22.83;;
59374;SDS011;45172;55.006;73.460;2023-12-04T13:48:40;71.03;;;24.23;;
59374;SDS011;45172;55.006;73.460;2023-12-04T13:51:10;80.53;;;23.00;;
59374;SDS011;45172;55.006;73.460;2023-12-04T13:53:37;74.40;;;22.30;;
59374;SDS011;45172;55.006;73.460;2023-12-04T13:56:10;90.07;;;24.75;;
59374;SDS011;45172;55.006;73.460;2023-12-04T13:58:46;87.07;;;27.20;;
59374;SDS011;45172;55.006;73.460;2023-12-04T14:01:27;101.20;;;29.63;;
59374;SDS011;45172;55.006;73.460;2023-12-04T14:03:55;146.55;;;46.60;;
59374;SDS011;45172;55.006;73.460;2023-12-04T14:06:30;120.00;;;34.55;;
59374;SDS011;45172;55.006;73.460;2023-12-04T14:08:57;110.35;;;30.50;;
59374;SDS011;45172;55.006;73.460;2023-12-04T14:11:24;82.57;;;26.42;;
59374;SDS011;45172;55.006;73.460;2023-12-04T14:13:50;79.97;;;25.10;;
59374;SDS011;45172;55.006;73.460;2023-12-04T14:16:17;74.68;;;22.92;;
59374;SDS011;45172;55.006;73.460;2023-12-04T14:18:43;53.42;;;19.05;;
59374;SDS011;45172;55.006;73.460;2023-12-04T14:21:11;41.35;;;17.13;;
59374;SDS011;45172;55.006;73.460;2023-12-04T14:23:37;69.65;;;20.75;;
59374;SDS011;45172;55.006;73.460;2023-12-04T14:26:03;92.40;;;30.35;;
59374;SDS011;45172;55.006;73.460;2023-12-04T14:28:30;77.05;;;26.13;;
59374;SDS011;45172;55.006;73.460;2023-12-04T14:30:56;61.90;;;17.98;;
59374;SDS011;45172;55.006;73.460;2023-12-04T14:33:22;20.15;;;7.45;;
59374;SDS011;45172;55.006;73.460;2023-12-04T14:35:49;28.40;;;7.20;;
59374;SDS011;45172;55.006;73.460;2023-12-04T14:38:15;15.77;;;6.50;;
59374;SDS011;45172;55.006;73.460;2023-12-04T14:40:41;181.05;;;51.22;;
59374;SDS011;45172;55.006;73.460;2023-12-04T14:43:08;91.03;;;34.22;;
59374;SDS011;45172;55.006;73.460;2023-12-04T14:45:36;41.83;;;13.20;;
59374;SDS011;45172;55.006;73.460;2023-12-04T14:48:02;59.75;;;18.50;;
59374;SDS011;45172;55.006;73.460;2023-12-04T14:50:33;46.90;;;12.95;;
59374;SDS011;45172;55.006;73.460;2023-12-04T14:53:01;56.25;;;12.85;;
59374;SDS011;45172;55.006;73.460;2023-12-04T14:55:46;28.65;;;7.80;;
59374;SDS011;45172;55.006;73.460;2023-12-04T14:58:30;104.35;;;36.78;;
59374;SDS011;45172;55.006;73.460;2023-12-04T15:01:12;45.50;;;20.30;;
59374;SDS011;45172;55.006;73.460;2023-12-04T15:03:57;33.75;;;10.35;;
59374;SDS011;45172;55.006;73.460;2023-12-04T15:06:23;18.40;;;4.07;;